Terminal Aerodrome Forecast
Issued by NWS Wichita, KS

Home | Current Version | Previous Version | Text Only | Print | Product List | Glossary On
Versions: 1 2 3 4 5 6 7 8 9 10 11 12 13 14 15 16
063
FTUS43 KICT 231738
TAFICT
TAF
KICT 231738Z 2318/2418 13012KT P6SM BKN150
     FM232100 16013G19KT P6SM SCT150
     FM240100 21010KT P6SM FEW150
     FM240300 33017G25KT P6SM OVC025=

USA.gov is the U.S. government's official web portal to all federal, state and local government web resources and services.